sensor_id;sensor_type;location;lat;lon;timestamp;P1;durP1;ratioP1;P2;durP2;ratioP2
16813;SDS011;8524;57.650;11.926;2024-01-25T00:00:17;17.80;;;4.30;;
16813;SDS011;8524;57.650;11.926;2024-01-25T00:02:44;15.20;;;4.83;;
16813;SDS011;8524;57.650;11.926;2024-01-25T00:05:11;16.40;;;4.97;;
16813;SDS011;8524;57.650;11.926;2024-01-25T00:07:44;24.37;;;5.07;;
16813;SDS011;8524;57.650;11.926;2024-01-25T00:10:12;14.90;;;4.63;;
16813;SDS011;8524;57.650;11.926;2024-01-25T00:12:41;20.10;;;4.83;;
16813;SDS011;8524;57.650;11.926;2024-01-25T00:15:08;17.10;;;4.10;;
16813;SDS011;8524;57.650;11.926;2024-01-25T00:17:35;13.80;;;4.23;;
16813;SDS011;8524;57.650;11.926;2024-01-25T00:20:03;18.43;;;4.83;;
16813;SDS011;8524;57.650;11.926;2024-01-25T00:22:30;20.17;;;4.53;;
16813;SDS011;8524;57.650;11.926;2024-01-25T00:24:57;12.40;;;4.10;;
16813;SDS011;8524;57.650;11.926;2024-01-25T00:27:24;18.17;;;4.53;;
16813;SDS011;8524;57.650;11.926;2024-01-25T00:29:53;15.07;;;4.07;;
16813;SDS011;8524;57.650;11.926;2024-01-25T00:32:20;19.77;;;4.87;;
16813;SDS011;8524;57.650;11.926;2024-01-25T00:34:47;20.23;;;4.27;;
16813;SDS011;8524;57.650;11.926;2024-01-25T00:37:14;16.97;;;4.30;;
16813;SDS011;8524;57.650;11.926;2024-01-25T00:39:42;14.03;;;3.80;;
16813;SDS011;8524;57.650;11.926;2024-01-25T00:42:09;15.50;;;4.20;;
16813;SDS011;8524;57.650;11.926;2024-01-25T00:44:39;18.50;;;4.20;;
16813;SDS011;8524;57.650;11.926;2024-01-25T00:47:08;17.73;;;4.80;;
16813;SDS011;8524;57.650;11.926;2024-01-25T00:49:36;11.90;;;3.83;;
16813;SDS011;8524;57.650;11.926;2024-01-25T00:52:04;16.33;;;4.00;;
16813;SDS011;8524;57.650;11.926;2024-01-25T00:54:32;16.63;;;3.87;;
16813;SDS011;8524;57.650;11.926;2024-01-25T00:56:59;12.67;;;3.83;;
16813;SDS011;8524;57.650;11.926;2024-01-25T00:59:26;17.10;;;4.20;;
16813;SDS011;8524;57.650;11.926;2024-01-25T01:01:54;15.27;;;4.07;;
16813;SDS011;8524;57.650;11.926;2024-01-25T01:04:25;16.83;;;4.43;;
16813;SDS011;8524;57.650;11.926;2024-01-25T01:06:53;17.53;;;4.27;;
16813;SDS011;8524;57.650;11.926;2024-01-25T01:09:20;19.20;;;4.13;;
16813;SDS011;8524;57.650;11.926;2024-01-25T01:11:47;11.97;;;3.80;;
16813;SDS011;8524;57.650;11.926;2024-01-25T01:14:15;18.10;;;4.23;;
16813;SDS011;8524;57.650;11.926;2024-01-25T01:16:42;17.77;;;4.30;;
16813;SDS011;8524;57.650;11.926;2024-01-25T01:19:09;15.63;;;4.60;;
16813;SDS011;8524;57.650;11.926;2024-01-25T01:21:37;13.00;;;4.50;;
16813;SDS011;8524;57.650;11.926;2024-01-25T01:24:08;14.90;;;4.70;;
16813;SDS011;8524;57.650;11.926;2024-01-25T01:26:34;12.77;;;3.87;;
16813;SDS011;8524;57.650;11.926;2024-01-25T01:29:01;11.30;;;3.40;;
16813;SDS011;8524;57.650;11.926;2024-01-25T01:31:28;14.27;;;3.77;;
16813;SDS011;8524;57.650;11.926;2024-01-25T01:33:55;15.30;;;3.20;;
16813;SDS011;8524;57.650;11.926;2024-01-25T01:36:23;11.23;;;3.67;;
16813;SDS011;8524;57.650;11.926;2024-01-25T01:38:51;11.63;;;3.40;;
16813;SDS011;8524;57.650;11.926;2024-01-25T01:41:18;10.30;;;3.40;;
16813;SDS011;8524;57.650;11.926;2024-01-25T01:43:45;8.93;;;2.80;;
16813;SDS011;8524;57.650;11.926;2024-01-25T01:46:12;8.43;;;2.50;;
16813;SDS011;8524;57.650;11.926;2024-01-25T01:48:46;8.37;;;2.27;;
16813;SDS011;8524;57.650;11.926;2024-01-25T01:51:13;11.60;;;3.42;;
16813;SDS011;8524;57.650;11.926;2024-01-25T01:53:40;11.37;;;2.87;;
16813;SDS011;8524;57.650;11.926;2024-01-25T01:56:09;7.50;;;2.50;;
16813;SDS011;8524;57.650;11.926;2024-01-25T01:58:36;9.37;;;2.87;;
16813;SDS011;8524;57.650;11.926;2024-01-25T02:01:04;8.33;;;2.80;;
16813;SDS011;8524;57.650;11.926;2024-01-25T02:03:31;8.83;;;2.80;;
16813;SDS011;8524;57.650;11.926;2024-01-25T02:05:58;5.33;;;2.00;;
16813;SDS011;8524;57.650;11.926;2024-01-25T02:08:27;8.07;;;2.00;;
16813;SDS011;8524;57.650;11.926;2024-01-25T02:10:54;9.90;;;2.23;;
16813;SDS011;8524;57.650;11.926;2024-01-25T02:13:23;6.67;;;2.23;;
16813;SDS011;8524;57.650;11.926;2024-01-25T02:15:49;8.57;;;2.80;;
16813;SDS011;8524;57.650;11.926;2024-01-25T02:18:16;5.73;;;2.03;;
16813;SDS011;8524;57.650;11.926;2024-01-25T02:20:43;4.97;;;2.13;;
16813;SDS011;8524;57.650;11.926;2024-01-25T02:23:11;5.67;;;1.90;;
16813;SDS011;8524;57.650;11.926;2024-01-25T02:25:38;5.60;;;2.10;;
16813;SDS011;8524;57.650;11.926;2024-01-25T02:28:05;5.17;;;2.27;;
16813;SDS011;8524;57.650;11.926;2024-01-25T02:30:32;7.43;;;2.20;;
16813;SDS011;8524;57.650;11.926;2024-01-25T02:32:59;4.97;;;2.20;;
16813;SDS011;8524;57.650;11.926;2024-01-25T02:35:26;6.60;;;1.80;;
16813;SDS011;8524;57.650;11.926;2024-01-25T02:37:53;6.50;;;1.93;;
16813;SDS011;8524;57.650;11.926;2024-01-25T02:40:21;3.13;;;1.60;;
16813;SDS011;8524;57.650;11.926;2024-01-25T02:42:48;3.83;;;1.77;;
16813;SDS011;8524;57.650;11.926;2024-01-25T02:45:15;4.27;;;1.83;;
16813;SDS011;8524;57.650;11.926;2024-01-25T02:47:42;4.17;;;1.60;;
16813;SDS011;8524;57.650;11.926;2024-01-25T02:50:09;5.13;;;1.67;;
16813;SDS011;8524;57.650;11.926;2024-01-25T02:52:36;4.03;;;1.60;;
16813;SDS011;8524;57.650;11.926;2024-01-25T02:55:03;8.00;;;1.70;;
16813;SDS011;8524;57.650;11.926;2024-01-25T02:57:32;7.13;;;1.80;;
16813;SDS011;8524;57.650;11.926;2024-01-25T02:59:58;3.90;;;1.50;;
16813;SDS011;8524;57.650;11.926;2024-01-25T03:02:25;3.57;;;1.50;;
16813;SDS011;8524;57.650;11.926;2024-01-25T03:04:52;4.30;;;1.53;;
16813;SDS011;8524;57.650;11.926;2024-01-25T03:07:19;2.63;;;1.53;;
16813;SDS011;8524;57.650;11.926;2024-01-25T03:09:46;3.30;;;1.67;;
16813;SDS011;8524;57.650;11.926;2024-01-25T03:12:13;3.70;;;1.57;;
16813;SDS011;8524;57.650;11.926;2024-01-25T03:14:42;2.17;;;1.60;;
16813;SDS011;8524;57.650;11.926;2024-01-25T03:17:09;4.87;;;1.43;;
16813;SDS011;8524;57.650;11.926;2024-01-25T03:19:37;2.87;;;1.43;;
16813;SDS011;8524;57.650;11.926;2024-01-25T03:22:04;1.60;;;1.13;;
16813;SDS011;8524;57.650;11.926;2024-01-25T03:24:31;2.67;;;1.43;;
16813;SDS011;8524;57.650;11.926;2024-01-25T03:26:58;2.83;;;1.40;;
16813;SDS011;8524;57.650;11.926;2024-01-25T03:29:24;4.97;;;1.30;;
16813;SDS011;8524;57.650;11.926;2024-01-25T03:31:53;2.17;;;1.20;;
16813;SDS011;8524;57.650;11.926;2024-01-25T03:34:19;2.17;;;1.20;;
16813;SDS011;8524;57.650;11.926;2024-01-25T03:36:46;2.20;;;1.20;;
16813;SDS011;8524;57.650;11.926;2024-01-25T03:39:13;2.00;;;1.40;;
16813;SDS011;8524;57.650;11.926;2024-01-25T03:41:40;2.92;;;1.80;;
16813;SDS011;8524;57.650;11.926;2024-01-25T03:44:07;5.13;;;1.57;;
16813;SDS011;8524;57.650;11.926;2024-01-25T03:46:33;3.20;;;1.40;;
16813;SDS011;8524;57.650;11.926;2024-01-25T03:49:02;3.17;;;1.33;;
16813;SDS011;8524;57.650;11.926;2024-01-25T03:51:29;3.30;;;1.40;;
16813;SDS011;8524;57.650;11.926;2024-01-25T03:53:56;2.17;;;1.27;;
16813;SDS011;8524;57.650;11.926;2024-01-25T03:56:23;3.30;;;1.37;;
16813;SDS011;8524;57.650;11.926;2024-01-25T03:58:51;1.63;;;1.40;;
16813;SDS011;8524;57.650;11.926;2024-01-25T04:01:19;2.40;;;1.73;;
16813;SDS011;8524;57.650;11.926;2024-01-25T04:03:45;3.93;;;2.10;;
16813;SDS011;8524;57.650;11.926;2024-01-25T04:06:14;4.47;;;2.37;;
16813;SDS011;8524;57.650;11.926;2024-01-25T04:08:40;2.87;;;2.13;;
16813;SDS011;8524;57.650;11.926;2024-01-25T04:11:07;5.33;;;3.00;;
16813;SDS011;8524;57.650;11.926;2024-01-25T04:13:35;3.83;;;2.80;;
16813;SDS011;8524;57.650;11.926;2024-01-25T04:16:02;4.17;;;2.70;;
16813;SDS011;8524;57.650;11.926;2024-01-25T04:18:29;6.90;;;3.50;;
16813;SDS011;8524;57.650;11.926;2024-01-25T04:20:56;4.10;;;3.10;;
16813;SDS011;8524;57.650;11.926;2024-01-25T04:23:24;4.57;;;3.20;;
16813;SDS011;8524;57.650;11.926;2024-01-25T04:25:51;5.27;;;3.73;;
16813;SDS011;8524;57.650;11.926;2024-01-25T04:28:20;6.30;;;3.90;;
16813;SDS011;8524;57.650;11.926;2024-01-25T04:30:47;5.73;;;3.37;;
16813;SDS011;8524;57.650;11.926;2024-01-25T04:33:14;4.30;;;3.70;;
16813;SDS011;8524;57.650;11.926;2024-01-25T04:35:40;4.33;;;3.93;;
16813;SDS011;8524;57.650;11.926;2024-01-25T04:38:09;3.93;;;3.53;;
16813;SDS011;8524;57.650;11.926;2024-01-25T04:40:37;4.43;;;3.60;;
16813;SDS011;8524;57.650;11.926;2024-01-25T04:43:04;4.13;;;3.70;;
16813;SDS011;8524;57.650;11.926;2024-01-25T04:45:31;5.50;;;4.40;;
16813;SDS011;8524;57.650;11.926;2024-01-25T04:47:57;8.53;;;4.30;;
16813;SDS011;8524;57.650;11.926;2024-01-25T04:50:24;5.13;;;3.40;;
16813;SDS011;8524;57.650;11.926;2024-01-25T04:52:51;4.47;;;3.47;;
16813;SDS011;8524;57.650;11.926;2024-01-25T04:55:18;3.80;;;3.40;;
16813;SDS011;8524;57.650;11.926;2024-01-25T04:57:46;5.27;;;3.70;;
16813;SDS011;8524;57.650;11.926;2024-01-25T05:00:16;5.17;;;4.27;;
16813;SDS011;8524;57.650;11.926;2024-01-25T05:02:43;4.27;;;3.60;;
16813;SDS011;8524;57.650;11.926;2024-01-25T05:05:10;4.93;;;3.60;;
16813;SDS011;8524;57.650;11.926;2024-01-25T05:07:37;3.43;;;3.13;;
16813;SDS011;8524;57.650;11.926;2024-01-25T05:10:04;3.73;;;3.43;;
16813;SDS011;8524;57.650;11.926;2024-01-25T05:12:31;4.10;;;3.70;;
16813;SDS011;8524;57.650;11.926;2024-01-25T05:15:00;4.18;;;3.88;;
16813;SDS011;8524;57.650;11.926;2024-01-25T05:17:26;4.30;;;4.00;;
16813;SDS011;8524;57.650;11.926;2024-01-25T05:19:53;3.60;;;3.30;;
16813;SDS011;8524;57.650;11.926;2024-01-25T05:22:20;4.07;;;3.60;;
16813;SDS011;8524;57.650;11.926;2024-01-25T05:24:47;3.47;;;3.17;;
16813;SDS011;8524;57.650;11.926;2024-01-25T05:27:14;3.53;;;3.23;;
16813;SDS011;8524;57.650;11.926;2024-01-25T05:29:41;4.20;;;3.80;;
16813;SDS011;8524;57.650;11.926;2024-01-25T05:32:09;4.03;;;3.73;;
16813;SDS011;8524;57.650;11.926;2024-01-25T05:34:36;4.30;;;3.87;;
16813;SDS011;8524;57.650;11.926;2024-01-25T05:37:03;4.87;;;3.93;;
16813;SDS011;8524;57.650;11.926;2024-01-25T05:39:30;4.07;;;3.77;;
16813;SDS011;8524;57.650;11.926;2024-01-25T05:41:56;4.13;;;3.47;;
16813;SDS011;8524;57.650;11.926;2024-01-25T05:44:23;4.10;;;3.70;;
16813;SDS011;8524;57.650;11.926;2024-01-25T05:46:50;3.97;;;3.47;;
16813;SDS011;8524;57.650;11.926;2024-01-25T05:49:18;3.73;;;3.43;;
16813;SDS011;8524;57.650;11.926;2024-01-25T05:51:45;4.53;;;4.13;;
16813;SDS011;8524;57.650;11.926;2024-01-25T05:54:12;4.30;;;3.90;;
16813;SDS011;8524;57.650;11.926;2024-01-25T05:56:39;4.37;;;3.97;;
16813;SDS011;8524;57.650;11.926;2024-01-25T05:59:06;4.07;;;3.67;;
16813;SDS011;8524;57.650;11.926;2024-01-25T06:01:32;3.67;;;3.33;;
16813;SDS011;8524;57.650;11.926;2024-01-25T06:03:59;3.90;;;3.53;;
16813;SDS011;8524;57.650;11.926;2024-01-25T06:06:28;4.10;;;3.33;;
16813;SDS011;8524;57.650;11.926;2024-01-25T06:08:54;3.67;;;3.37;;
16813;SDS011;8524;57.650;11.926;2024-01-25T06:11:21;3.80;;;3.50;;
16813;SDS011;8524;57.650;11.926;2024-01-25T06:13:48;4.20;;;3.90;;
16813;SDS011;8524;57.650;11.926;2024-01-25T06:16:15;3.70;;;3.40;;
16813;SDS011;8524;57.650;11.926;2024-01-25T06:18:42;3.83;;;3.47;;
16813;SDS011;8524;57.650;11.926;2024-01-25T06:21:09;3.80;;;3.50;;
16813;SDS011;8524;57.650;11.926;2024-01-25T06:23:37;3.70;;;3.40;;
16813;SDS011;8524;57.650;11.926;2024-01-25T06:26:04;3.83;;;3.47;;
16813;SDS011;8524;57.650;11.926;2024-01-25T06:28:31;3.40;;;3.20;;
16813;SDS011;8524;57.650;11.926;2024-01-25T06:30:57;3.60;;;3.30;;
16813;SDS011;8524;57.650;11.926;2024-01-25T06:33:26;3.80;;;3.50;;
16813;SDS011;8524;57.650;11.926;2024-01-25T06:35:53;3.83;;;3.53;;
16813;SDS011;8524;57.650;11.926;2024-01-25T06:38:20;3.13;;;2.93;;
16813;SDS011;8524;57.650;11.926;2024-01-25T06:40:49;4.13;;;3.73;;
16813;SDS011;8524;57.650;11.926;2024-01-25T06:43:15;4.70;;;4.13;;
16813;SDS011;8524;57.650;11.926;2024-01-25T06:45:42;3.57;;;3.20;;
16813;SDS011;8524;57.650;11.926;2024-01-25T06:48:09;3.30;;;3.00;;
16813;SDS011;8524;57.650;11.926;2024-01-25T06:50:36;3.60;;;3.30;;
16813;SDS011;8524;57.650;11.926;2024-01-25T06:53:03;3.23;;;3.00;;
16813;SDS011;8524;57.650;11.926;2024-01-25T06:55:30;2.93;;;2.73;;
16813;SDS011;8524;57.650;11.926;2024-01-25T06:57:58;3.30;;;3.00;;
16813;SDS011;8524;57.650;11.926;2024-01-25T07:00:25;3.33;;;3.13;;
16813;SDS011;8524;57.650;11.926;2024-01-25T07:02:52;3.70;;;3.40;;
16813;SDS011;8524;57.650;11.926;2024-01-25T07:05:19;3.53;;;3.27;;
16813;SDS011;8524;57.650;11.926;2024-01-25T07:07:46;3.90;;;3.60;;
16813;SDS011;8524;57.650;11.926;2024-01-25T07:10:13;3.97;;;3.67;;
16813;SDS011;8524;57.650;11.926;2024-01-25T07:12:40;4.23;;;3.93;;
16813;SDS011;8524;57.650;11.926;2024-01-25T07:15:09;3.87;;;3.57;;
16813;SDS011;8524;57.650;11.926;2024-01-25T07:17:36;4.77;;;3.93;;
16813;SDS011;8524;57.650;11.926;2024-01-25T07:20:04;3.83;;;3.53;;
16813;SDS011;8524;57.650;11.926;2024-01-25T07:22:32;3.53;;;3.23;;
16813;SDS011;8524;57.650;11.926;2024-01-25T07:24:59;3.93;;;3.53;;
16813;SDS011;8524;57.650;11.926;2024-01-25T07:27:26;4.33;;;4.00;;
16813;SDS011;8524;57.650;11.926;2024-01-25T07:29:53;4.20;;;3.50;;
16813;SDS011;8524;57.650;11.926;2024-01-25T07:32:21;4.63;;;4.23;;
16813;SDS011;8524;57.650;11.926;2024-01-25T07:34:49;3.90;;;3.60;;
16813;SDS011;8524;57.650;11.926;2024-01-25T07:37:16;3.90;;;3.60;;
16813;SDS011;8524;57.650;11.926;2024-01-25T07:39:43;4.10;;;3.80;;
16813;SDS011;8524;57.650;11.926;2024-01-25T07:42:10;3.90;;;3.60;;
16813;SDS011;8524;57.650;11.926;2024-01-25T07:44:38;4.63;;;4.23;;
16813;SDS011;8524;57.650;11.926;2024-01-25T07:47:05;3.60;;;3.30;;
16813;SDS011;8524;57.650;11.926;2024-01-25T07:49:33;3.90;;;3.60;;
16813;SDS011;8524;57.650;11.926;2024-01-25T07:51:59;3.70;;;3.40;;
16813;SDS011;8524;57.650;11.926;2024-01-25T07:54:26;3.77;;;3.47;;
16813;SDS011;8524;57.650;11.926;2024-01-25T07:56:53;4.20;;;3.90;;
16813;SDS011;8524;57.650;11.926;2024-01-25T07:59:19;4.67;;;4.27;;
16813;SDS011;8524;57.650;11.926;2024-01-25T08:01:46;3.87;;;3.53;;
16813;SDS011;8524;57.650;11.926;2024-01-25T08:04:13;4.60;;;4.20;;
16813;SDS011;8524;57.650;11.926;2024-01-25T08:06:42;4.40;;;4.00;;
16813;SDS011;8524;57.650;11.926;2024-01-25T08:09:09;3.57;;;3.27;;
16813;SDS011;8524;57.650;11.926;2024-01-25T08:11:36;4.37;;;4.07;;
16813;SDS011;8524;57.650;11.926;2024-01-25T08:14:03;4.53;;;4.13;;
16813;SDS011;8524;57.650;11.926;2024-01-25T08:16:30;3.45;;;3.15;;
16813;SDS011;8524;57.650;11.926;2024-01-25T08:18:57;3.80;;;3.50;;
16813;SDS011;8524;57.650;11.926;2024-01-25T08:21:26;3.50;;;3.20;;
16813;SDS011;8524;57.650;11.926;2024-01-25T08:23:54;7.50;;;6.80;;
16813;SDS011;8524;57.650;11.926;2024-01-25T08:26:21;6.63;;;6.10;;
16813;SDS011;8524;57.650;11.926;2024-01-25T08:28:48;5.53;;;5.03;;
16813;SDS011;8524;57.650;11.926;2024-01-25T08:31:15;5.77;;;5.20;;
16813;SDS011;8524;57.650;11.926;2024-01-25T08:33:42;5.10;;;4.67;;
16813;SDS011;8524;57.650;11.926;2024-01-25T08:36:12;4.53;;;4.13;;
16813;SDS011;8524;57.650;11.926;2024-01-25T08:38:39;8.23;;;7.43;;
16813;SDS011;8524;57.650;11.926;2024-01-25T08:41:08;9.97;;;9.07;;
16813;SDS011;8524;57.650;11.926;2024-01-25T08:43:36;7.67;;;6.93;;
16813;SDS011;8524;57.650;11.926;2024-01-25T08:46:05;11.17;;;10.07;;
16813;SDS011;8524;57.650;11.926;2024-01-25T08:48:32;7.07;;;6.37;;
16813;SDS011;8524;57.650;11.926;2024-01-25T08:50:59;8.73;;;6.03;;
16813;SDS011;8524;57.650;11.926;2024-01-25T08:53:27;12.60;;;11.40;;
16813;SDS011;8524;57.650;11.926;2024-01-25T08:55:54;9.77;;;8.93;;
16813;SDS011;8524;57.650;11.926;2024-01-25T08:58:22;11.10;;;10.17;;
16813;SDS011;8524;57.650;11.926;2024-01-25T09:00:49;9.83;;;8.87;;
16813;SDS011;8524;57.650;11.926;2024-01-25T09:03:16;5.50;;;5.00;;
16813;SDS011;8524;57.650;11.926;2024-01-25T09:05:43;6.10;;;5.50;;
16813;SDS011;8524;57.650;11.926;2024-01-25T09:08:11;6.40;;;5.07;;
16813;SDS011;8524;57.650;11.926;2024-01-25T09:10:40;5.00;;;4.37;;
16813;SDS011;8524;57.650;11.926;2024-01-25T09:13:08;4.70;;;4.20;;
16813;SDS011;8524;57.650;11.926;2024-01-25T09:15:36;4.40;;;4.00;;
16813;SDS011;8524;57.650;11.926;2024-01-25T09:18:03;6.60;;;4.03;;
16813;SDS011;8524;57.650;11.926;2024-01-25T09:20:31;5.43;;;4.53;;
16813;SDS011;8524;57.650;11.926;2024-01-25T09:22:57;6.30;;;4.33;;
16813;SDS011;8524;57.650;11.926;2024-01-25T09:25:24;5.63;;;4.50;;
16813;SDS011;8524;57.650;11.926;2024-01-25T09:27:51;4.90;;;4.03;;
16813;SDS011;8524;57.650;11.926;2024-01-25T09:30:18;5.27;;;4.30;;
16813;SDS011;8524;57.650;11.926;2024-01-25T09:32:47;4.33;;;3.60;;
16813;SDS011;8524;57.650;11.926;2024-01-25T09:35:14;5.73;;;4.80;;
16813;SDS011;8524;57.650;11.926;2024-01-25T09:37:42;5.77;;;4.10;;
16813;SDS011;8524;57.650;11.926;2024-01-25T09:40:09;6.60;;;4.00;;
16813;SDS011;8524;57.650;11.926;2024-01-25T09:42:37;4.27;;;3.67;;
16813;SDS011;8524;57.650;11.926;2024-01-25T09:45:05;6.23;;;4.20;;
16813;SDS011;8524;57.650;11.926;2024-01-25T09:47:33;4.20;;;3.80;;
16813;SDS011;8524;57.650;11.926;2024-01-25T09:50:02;5.30;;;3.93;;
16813;SDS011;8524;57.650;11.926;2024-01-25T09:52:29;7.43;;;4.53;;
16813;SDS011;8524;57.650;11.926;2024-01-25T09:54:57;6.67;;;4.00;;
16813;SDS011;8524;57.650;11.926;2024-01-25T09:57:25;5.20;;;4.23;;
16813;SDS011;8524;57.650;11.926;2024-01-25T09:59:54;5.23;;;4.07;;
16813;SDS011;8524;57.650;11.926;2024-01-25T10:02:21;4.43;;;3.93;;
16813;SDS011;8524;57.650;11.926;2024-01-25T10:04:49;6.30;;;4.73;;
16813;SDS011;8524;57.650;11.926;2024-01-25T10:07:34;6.73;;;4.30;;
16813;SDS011;8524;57.650;11.926;2024-01-25T10:10:02;6.50;;;4.50;;
16813;SDS011;8524;57.650;11.926;2024-01-25T10:12:30;6.13;;;4.07;;
16813;SDS011;8524;57.650;11.926;2024-01-25T10:14:57;6.77;;;4.63;;
16813;SDS011;8524;57.650;11.926;2024-01-25T10:17:24;4.27;;;3.60;;
16813;SDS011;8524;57.650;11.926;2024-01-25T10:19:51;4.77;;;4.03;;
16813;SDS011;8524;57.650;11.926;2024-01-25T10:22:20;6.97;;;4.50;;
16813;SDS011;8524;57.650;11.926;2024-01-25T10:24:46;8.13;;;5.60;;
16813;SDS011;8524;57.650;11.926;2024-01-25T10:27:15;5.93;;;4.90;;
16813;SDS011;8524;57.650;11.926;2024-01-25T10:29:42;7.37;;;5.27;;
16813;SDS011;8524;57.650;11.926;2024-01-25T10:32:09;8.33;;;5.87;;
16813;SDS011;8524;57.650;11.926;2024-01-25T10:34:36;7.07;;;5.50;;
16813;SDS011;8524;57.650;11.926;2024-01-25T10:37:03;7.57;;;5.37;;
16813;SDS011;8524;57.650;11.926;2024-01-25T10:39:33;9.30;;;5.60;;
16813;SDS011;8524;57.650;11.926;2024-01-25T10:42:01;5.93;;;4.13;;
16813;SDS011;8524;57.650;11.926;2024-01-25T10:44:28;6.40;;;4.33;;
16813;SDS011;8524;57.650;11.926;2024-01-25T10:46:55;7.63;;;4.20;;
16813;SDS011;8524;57.650;11.926;2024-01-25T10:49:22;5.30;;;3.60;;
16813;SDS011;8524;57.650;11.926;2024-01-25T10:51:51;7.30;;;3.97;;
16813;SDS011;8524;57.650;11.926;2024-01-25T10:54:19;6.77;;;3.93;;
16813;SDS011;8524;57.650;11.926;2024-01-25T10:56:48;10.20;;;4.93;;
16813;SDS011;8524;57.650;11.926;2024-01-25T10:59:15;6.17;;;3.97;;
16813;SDS011;8524;57.650;11.926;2024-01-25T11:01:43;5.27;;;3.70;;
16813;SDS011;8524;57.650;11.926;2024-01-25T11:04:15;6.03;;;3.30;;
16813;SDS011;8524;57.650;11.926;2024-01-25T11:06:43;6.07;;;3.77;;
16813;SDS011;8524;57.650;11.926;2024-01-25T11:09:11;4.00;;;3.43;;
16813;SDS011;8524;57.650;11.926;2024-01-25T11:11:43;7.17;;;3.70;;
16813;SDS011;8524;57.650;11.926;2024-01-25T11:14:12;5.10;;;3.37;;
16813;SDS011;8524;57.650;11.926;2024-01-25T11:16:41;6.47;;;3.60;;
16813;SDS011;8524;57.650;11.926;2024-01-25T11:19:15;7.70;;;4.87;;
16813;SDS011;8524;57.650;11.926;2024-01-25T11:21:44;4.87;;;3.80;;
16813;SDS011;8524;57.650;11.926;2024-01-25T11:24:12;7.70;;;4.07;;
16813;SDS011;8524;57.650;11.926;2024-01-25T11:26:39;7.17;;;3.97;;
16813;SDS011;8524;57.650;11.926;2024-01-25T11:29:06;5.93;;;3.67;;
16813;SDS011;8524;57.650;11.926;2024-01-25T11:31:35;7.60;;;4.87;;
16813;SDS011;8524;57.650;11.926;2024-01-25T11:34:01;5.87;;;3.70;;
16813;SDS011;8524;57.650;11.926;2024-01-25T11:36:29;6.17;;;3.60;;
16813;SDS011;8524;57.650;11.926;2024-01-25T11:38:57;7.80;;;4.63;;
16813;SDS011;8524;57.650;11.926;2024-01-25T11:41:24;5.10;;;3.30;;
16813;SDS011;8524;57.650;11.926;2024-01-25T11:43:52;5.83;;;3.40;;
16813;SDS011;8524;57.650;11.926;2024-01-25T11:46:19;7.43;;;4.00;;
16813;SDS011;8524;57.650;11.926;2024-01-25T11:48:48;4.63;;;2.90;;
16813;SDS011;8524;57.650;11.926;2024-01-25T11:51:15;5.93;;;3.20;;
16813;SDS011;8524;57.650;11.926;2024-01-25T11:53:42;5.43;;;3.27;;
16813;SDS011;8524;57.650;11.926;2024-01-25T11:56:09;4.43;;;3.33;;
16813;SDS011;8524;57.650;11.926;2024-01-25T11:58:41;5.17;;;3.07;;
16813;SDS011;8524;57.650;11.926;2024-01-25T12:01:09;6.20;;;2.90;;
16813;SDS011;8524;57.650;11.926;2024-01-25T12:03:37;4.43;;;3.00;;
16813;SDS011;8524;57.650;11.926;2024-01-25T12:06:06;4.93;;;2.80;;
16813;SDS011;8524;57.650;11.926;2024-01-25T12:08:34;8.20;;;3.17;;
16813;SDS011;8524;57.650;11.926;2024-01-25T12:11:03;5.90;;;3.03;;
16813;SDS011;8524;57.650;11.926;2024-01-25T12:13:31;6.30;;;3.43;;
16813;SDS011;8524;57.650;11.926;2024-01-25T12:16:00;5.03;;;2.80;;
16813;SDS011;8524;57.650;11.926;2024-01-25T12:18:28;5.97;;;2.60;;
16813;SDS011;8524;57.650;11.926;2024-01-25T12:20:57;5.47;;;3.20;;
16813;SDS011;8524;57.650;11.926;2024-01-25T12:23:31;4.43;;;2.23;;
16813;SDS011;8524;57.650;11.926;2024-01-25T12:25:59;5.63;;;2.37;;
16813;SDS011;8524;57.650;11.926;2024-01-25T12:28:27;8.10;;;2.90;;
16813;SDS011;8524;57.650;11.926;2024-01-25T12:30:54;6.10;;;3.23;;
16813;SDS011;8524;57.650;11.926;2024-01-25T12:33:21;5.60;;;3.00;;
16813;SDS011;8524;57.650;11.926;2024-01-25T12:35:48;5.07;;;3.20;;
16813;SDS011;8524;57.650;11.926;2024-01-25T12:38:15;7.03;;;2.63;;
16813;SDS011;8524;57.650;11.926;2024-01-25T12:40:45;4.83;;;2.83;;
16813;SDS011;8524;57.650;11.926;2024-01-25T12:43:13;7.13;;;2.73;;
16813;SDS011;8524;57.650;11.926;2024-01-25T12:45:41;5.23;;;1.97;;
16813;SDS011;8524;57.650;11.926;2024-01-25T12:48:08;4.67;;;2.30;;
16813;SDS011;8524;57.650;11.926;2024-01-25T12:50:35;4.63;;;2.50;;
16813;SDS011;8524;57.650;11.926;2024-01-25T12:53:03;4.60;;;2.67;;
16813;SDS011;8524;57.650;11.926;2024-01-25T12:55:31;3.60;;;2.27;;
16813;SDS011;8524;57.650;11.926;2024-01-25T12:57:59;4.97;;;2.60;;
16813;SDS011;8524;57.650;11.926;2024-01-25T13:00:26;6.30;;;2.80;;
16813;SDS011;8524;57.650;11.926;2024-01-25T13:02:53;4.97;;;3.57;;
16813;SDS011;8524;57.650;11.926;2024-01-25T13:05:25;5.30;;;3.30;;
16813;SDS011;8524;57.650;11.926;2024-01-25T13:07:53;5.17;;;2.97;;
16813;SDS011;8524;57.650;11.926;2024-01-25T13:10:20;7.77;;;3.40;;
16813;SDS011;8524;57.650;11.926;2024-01-25T13:12:47;5.07;;;4.03;;
16813;SDS011;8524;57.650;11.926;2024-01-25T13:15:15;5.63;;;3.93;;
16813;SDS011;8524;57.650;11.926;2024-01-25T13:17:43;7.17;;;4.00;;
16813;SDS011;8524;57.650;11.926;2024-01-25T13:20:10;4.97;;;2.87;;
16813;SDS011;8524;57.650;11.926;2024-01-25T13:22:37;7.20;;;3.17;;
16813;SDS011;8524;57.650;11.926;2024-01-25T13:25:05;6.03;;;3.27;;
16813;SDS011;8524;57.650;11.926;2024-01-25T13:27:33;6.05;;;2.95;;
16813;SDS011;8524;57.650;11.926;2024-01-25T13:30:00;4.23;;;2.70;;
16813;SDS011;8524;57.650;11.926;2024-01-25T13:32:30;4.03;;;2.77;;
16813;SDS011;8524;57.650;11.926;2024-01-25T13:34:57;5.30;;;2.60;;
16813;SDS011;8524;57.650;11.926;2024-01-25T13:37:24;4.47;;;2.80;;
16813;SDS011;8524;57.650;11.926;2024-01-25T13:39:51;5.53;;;2.50;;
16813;SDS011;8524;57.650;11.926;2024-01-25T13:42:18;3.20;;;2.50;;
16813;SDS011;8524;57.650;11.926;2024-01-25T13:44:46;4.13;;;2.10;;
16813;SDS011;8524;57.650;11.926;2024-01-25T13:47:12;3.50;;;2.43;;
16813;SDS011;8524;57.650;11.926;2024-01-25T13:49:41;4.93;;;2.60;;
16813;SDS011;8524;57.650;11.926;2024-01-25T13:52:14;5.70;;;2.83;;
16813;SDS011;8524;57.650;11.926;2024-01-25T13:54:44;6.60;;;2.80;;
16813;SDS011;8524;57.650;11.926;2024-01-25T13:57:11;6.77;;;2.57;;
16813;SDS011;8524;57.650;11.926;2024-01-25T13:59:39;6.83;;;2.83;;
16813;SDS011;8524;57.650;11.926;2024-01-25T14:02:06;5.10;;;2.20;;
16813;SDS011;8524;57.650;11.926;2024-01-25T14:04:33;2.93;;;2.07;;
16813;SDS011;8524;57.650;11.926;2024-01-25T14:07:01;5.20;;;2.37;;
16813;SDS011;8524;57.650;11.926;2024-01-25T14:09:29;3.47;;;2.00;;
16813;SDS011;8524;57.650;11.926;2024-01-25T14:11:56;2.90;;;1.93;;
16813;SDS011;8524;57.650;11.926;2024-01-25T14:14:22;3.43;;;2.10;;
16813;SDS011;8524;57.650;11.926;2024-01-25T14:16:49;2.77;;;1.93;;
16813;SDS011;8524;57.650;11.926;2024-01-25T14:19:16;6.67;;;2.37;;
16813;SDS011;8524;57.650;11.926;2024-01-25T14:21:45;3.83;;;2.33;;
16813;SDS011;8524;57.650;11.926;2024-01-25T14:24:14;3.83;;;2.07;;
16813;SDS011;8524;57.650;11.926;2024-01-25T14:26:41;5.23;;;2.20;;
16813;SDS011;8524;57.650;11.926;2024-01-25T14:29:08;3.20;;;2.40;;
16813;SDS011;8524;57.650;11.926;2024-01-25T14:31:35;5.37;;;2.23;;
16813;SDS011;8524;57.650;11.926;2024-01-25T14:34:02;3.83;;;2.50;;
16813;SDS011;8524;57.650;11.926;2024-01-25T14:36:29;3.77;;;2.20;;
16813;SDS011;8524;57.650;11.926;2024-01-25T14:38:56;3.63;;;1.70;;
16813;SDS011;8524;57.650;11.926;2024-01-25T14:41:24;4.97;;;2.10;;
16813;SDS011;8524;57.650;11.926;2024-01-25T14:43:51;3.83;;;2.33;;
16813;SDS011;8524;57.650;11.926;2024-01-25T14:46:18;4.63;;;2.47;;